sensor_id;sensor_type;location;lat;lon;timestamp;P1;durP1;ratioP1;P2;durP2;ratioP2
7231;SDS011;3657;49.630;11.018;2024-02-28T00:01:47;47.57;;;43.47;;
7231;SDS011;3657;49.630;11.018;2024-02-28T00:04:14;46.37;;;42.30;;
7231;SDS011;3657;49.630;11.018;2024-02-28T00:06:41;47.40;;;43.00;;
7231;SDS011;3657;49.630;11.018;2024-02-28T00:09:07;50.80;;;46.67;;
7231;SDS011;3657;49.630;11.018;2024-02-28T00:11:34;44.30;;;40.53;;
7231;SDS011;3657;49.630;11.018;2024-02-28T00:14:01;44.03;;;40.30;;
7231;SDS011;3657;49.630;11.018;2024-02-28T00:16:29;46.23;;;42.17;;
7231;SDS011;3657;49.630;11.018;2024-02-28T00:18:55;43.93;;;40.03;;
7231;SDS011;3657;49.630;11.018;2024-02-28T00:21:22;44.57;;;40.77;;
7231;SDS011;3657;49.630;11.018;2024-02-28T00:23:49;52.20;;;47.53;;
7231;SDS011;3657;49.630;11.018;2024-02-28T00:26:15;44.73;;;41.03;;
7231;SDS011;3657;49.630;11.018;2024-02-28T00:28:42;44.20;;;40.50;;
7231;SDS011;3657;49.630;11.018;2024-02-28T00:31:09;44.43;;;40.57;;
7231;SDS011;3657;49.630;11.018;2024-02-28T00:33:37;43.23;;;39.53;;
7231;SDS011;3657;49.630;11.018;2024-02-28T00:36:03;43.00;;;39.50;;
7231;SDS011;3657;49.630;11.018;2024-02-28T00:38:30;48.57;;;44.33;;
7231;SDS011;3657;49.630;11.018;2024-02-28T00:40:57;44.57;;;40.57;;
7231;SDS011;3657;49.630;11.018;2024-02-28T00:43:24;45.53;;;41.33;;
7231;SDS011;3657;49.630;11.018;2024-02-28T00:45:50;43.90;;;40.07;;
7231;SDS011;3657;49.630;11.018;2024-02-28T00:48:17;43.43;;;39.80;;
7231;SDS011;3657;49.630;11.018;2024-02-28T00:50:45;42.50;;;38.90;;
7231;SDS011;3657;49.630;11.018;2024-02-28T00:53:12;46.03;;;41.97;;
7231;SDS011;3657;49.630;11.018;2024-02-28T00:55:38;41.63;;;38.00;;
7231;SDS011;3657;49.630;11.018;2024-02-28T00:58:05;43.97;;;40.10;;
7231;SDS011;3657;49.630;11.018;2024-02-28T01:00:32;45.17;;;41.17;;
7231;SDS011;3657;49.630;11.018;2024-02-28T01:02:58;46.50;;;42.13;;
7231;SDS011;3657;49.630;11.018;2024-02-28T01:05:28;45.83;;;41.60;;
7231;SDS011;3657;49.630;11.018;2024-02-28T01:07:56;44.47;;;40.70;;
7231;SDS011;3657;49.630;11.018;2024-02-28T01:10:23;46.17;;;42.07;;
7231;SDS011;3657;49.630;11.018;2024-02-28T01:12:49;44.23;;;40.43;;
7231;SDS011;3657;49.630;11.018;2024-02-28T01:15:16;45.57;;;41.57;;
7231;SDS011;3657;49.630;11.018;2024-02-28T01:17:43;45.93;;;41.87;;
7231;SDS011;3657;49.630;11.018;2024-02-28T01:20:10;45.40;;;41.60;;
7231;SDS011;3657;49.630;11.018;2024-02-28T01:22:37;45.47;;;41.33;;
7231;SDS011;3657;49.630;11.018;2024-02-28T01:25:05;45.73;;;41.93;;
7231;SDS011;3657;49.630;11.018;2024-02-28T01:27:32;46.33;;;42.13;;
7231;SDS011;3657;49.630;11.018;2024-02-28T01:29:59;46.10;;;41.93;;
7231;SDS011;3657;49.630;11.018;2024-02-28T01:32:25;46.87;;;42.67;;
7231;SDS011;3657;49.630;11.018;2024-02-28T01:34:52;43.80;;;39.97;;
7231;SDS011;3657;49.630;11.018;2024-02-28T01:37:18;42.33;;;38.63;;
7231;SDS011;3657;49.630;11.018;2024-02-28T01:39:45;48.23;;;44.30;;
7231;SDS011;3657;49.630;11.018;2024-02-28T01:42:14;44.43;;;40.43;;
7231;SDS011;3657;49.630;11.018;2024-02-28T01:44:43;45.60;;;41.67;;
7231;SDS011;3657;49.630;11.018;2024-02-28T01:47:11;41.13;;;37.70;;
7231;SDS011;3657;49.630;11.018;2024-02-28T01:49:38;45.00;;;41.03;;
7231;SDS011;3657;49.630;11.018;2024-02-28T01:52:05;44.03;;;40.23;;
7231;SDS011;3657;49.630;11.018;2024-02-28T01:54:32;46.67;;;42.83;;
7231;SDS011;3657;49.630;11.018;2024-02-28T01:57:00;43.40;;;39.50;;
7231;SDS011;3657;49.630;11.018;2024-02-28T01:59:29;42.60;;;38.93;;
7231;SDS011;3657;49.630;11.018;2024-02-28T02:01:57;44.40;;;40.43;;
7231;SDS011;3657;49.630;11.018;2024-02-28T02:04:24;42.07;;;38.37;;
7231;SDS011;3657;49.630;11.018;2024-02-28T02:06:50;40.93;;;37.57;;
7231;SDS011;3657;49.630;11.018;2024-02-28T02:09:19;41.97;;;38.47;;
7231;SDS011;3657;49.630;11.018;2024-02-28T02:11:46;44.27;;;40.50;;
7231;SDS011;3657;49.630;11.018;2024-02-28T02:14:13;41.50;;;38.10;;
7231;SDS011;3657;49.630;11.018;2024-02-28T02:16:41;39.93;;;36.67;;
7231;SDS011;3657;49.630;11.018;2024-02-28T02:19:07;43.57;;;39.87;;
7231;SDS011;3657;49.630;11.018;2024-02-28T02:21:37;40.93;;;37.53;;
7231;SDS011;3657;49.630;11.018;2024-02-28T02:24:08;46.80;;;43.10;;
7231;SDS011;3657;49.630;11.018;2024-02-28T02:26:35;41.13;;;37.40;;
7231;SDS011;3657;49.630;11.018;2024-02-28T02:29:02;38.60;;;35.57;;
7231;SDS011;3657;49.630;11.018;2024-02-28T02:31:28;41.00;;;37.40;;
7231;SDS011;3657;49.630;11.018;2024-02-28T02:33:55;42.00;;;38.57;;
7231;SDS011;3657;49.630;11.018;2024-02-28T02:36:22;40.47;;;37.17;;
7231;SDS011;3657;49.630;11.018;2024-02-28T02:38:48;41.97;;;38.63;;
7231;SDS011;3657;49.630;11.018;2024-02-28T02:41:16;40.03;;;36.93;;
7231;SDS011;3657;49.630;11.018;2024-02-28T02:43:44;41.80;;;38.60;;
7231;SDS011;3657;49.630;11.018;2024-02-28T02:46:11;38.90;;;35.77;;
7231;SDS011;3657;49.630;11.018;2024-02-28T02:48:37;40.00;;;36.63;;
7231;SDS011;3657;49.630;11.018;2024-02-28T02:51:04;39.70;;;36.60;;
7231;SDS011;3657;49.630;11.018;2024-02-28T02:53:30;47.63;;;43.83;;
7231;SDS011;3657;49.630;11.018;2024-02-28T02:55:57;38.63;;;35.63;;
7231;SDS011;3657;49.630;11.018;2024-02-28T02:58:25;38.47;;;35.17;;
7231;SDS011;3657;49.630;11.018;2024-02-28T03:00:52;37.87;;;34.87;;
7231;SDS011;3657;49.630;11.018;2024-02-28T03:03:18;38.30;;;35.23;;
7231;SDS011;3657;49.630;11.018;2024-02-28T03:05:45;37.43;;;34.50;;
7231;SDS011;3657;49.630;11.018;2024-02-28T03:08:12;38.60;;;35.70;;
7231;SDS011;3657;49.630;11.018;2024-02-28T03:10:39;37.30;;;34.47;;
7231;SDS011;3657;49.630;11.018;2024-02-28T03:13:05;38.37;;;35.33;;
7231;SDS011;3657;49.630;11.018;2024-02-28T03:15:33;37.47;;;34.53;;
7231;SDS011;3657;49.630;11.018;2024-02-28T03:18:00;36.97;;;34.13;;
7231;SDS011;3657;49.630;11.018;2024-02-28T03:20:27;38.27;;;35.43;;
7231;SDS011;3657;49.630;11.018;2024-02-28T03:22:54;37.53;;;34.30;;
7231;SDS011;3657;49.630;11.018;2024-02-28T03:25:21;43.70;;;40.40;;
7231;SDS011;3657;49.630;11.018;2024-02-28T03:27:47;37.70;;;34.70;;
7231;SDS011;3657;49.630;11.018;2024-02-28T03:30:14;37.23;;;34.43;;
7231;SDS011;3657;49.630;11.018;2024-02-28T03:32:42;36.80;;;33.90;;
7231;SDS011;3657;49.630;11.018;2024-02-28T03:35:09;37.13;;;34.43;;
7231;SDS011;3657;49.630;11.018;2024-02-28T03:37:36;37.27;;;34.37;;
7231;SDS011;3657;49.630;11.018;2024-02-28T03:40:03;43.77;;;40.30;;
7231;SDS011;3657;49.630;11.018;2024-02-28T03:42:30;38.40;;;35.50;;
7231;SDS011;3657;49.630;11.018;2024-02-28T03:44:57;37.33;;;34.53;;
7231;SDS011;3657;49.630;11.018;2024-02-28T03:47:24;37.70;;;34.80;;
7231;SDS011;3657;49.630;11.018;2024-02-28T03:49:52;37.23;;;34.37;;
7231;SDS011;3657;49.630;11.018;2024-02-28T03:52:22;37.20;;;34.60;;
7231;SDS011;3657;49.630;11.018;2024-02-28T03:54:48;46.00;;;42.60;;
7231;SDS011;3657;49.630;11.018;2024-02-28T03:57:15;36.43;;;33.73;;
7231;SDS011;3657;49.630;11.018;2024-02-28T03:59:42;36.47;;;33.87;;
7231;SDS011;3657;49.630;11.018;2024-02-28T04:02:09;35.13;;;32.73;;
7231;SDS011;3657;49.630;11.018;2024-02-28T04:04:35;36.83;;;34.10;;
7231;SDS011;3657;49.630;11.018;2024-02-28T04:07:03;35.47;;;32.90;;
7231;SDS011;3657;49.630;11.018;2024-02-28T04:09:31;39.60;;;36.73;;
7231;SDS011;3657;49.630;11.018;2024-02-28T04:11:58;34.53;;;32.13;;
7231;SDS011;3657;49.630;11.018;2024-02-28T04:14:25;33.70;;;31.30;;
7231;SDS011;3657;49.630;11.018;2024-02-28T04:16:51;34.73;;;32.23;;
7231;SDS011;3657;49.630;11.018;2024-02-28T04:19:18;36.33;;;33.63;;
7231;SDS011;3657;49.630;11.018;2024-02-28T04:21:45;34.67;;;32.20;;
7231;SDS011;3657;49.630;11.018;2024-02-28T04:24:13;41.77;;;38.87;;
7231;SDS011;3657;49.630;11.018;2024-02-28T04:26:39;40.50;;;37.60;;
7231;SDS011;3657;49.630;11.018;2024-02-28T04:29:06;33.73;;;31.53;;
7231;SDS011;3657;49.630;11.018;2024-02-28T04:31:38;37.47;;;34.60;;
7231;SDS011;3657;49.630;11.018;2024-02-28T04:34:05;32.27;;;30.17;;
7231;SDS011;3657;49.630;11.018;2024-02-28T04:36:32;37.37;;;34.77;;
7231;SDS011;3657;49.630;11.018;2024-02-28T04:38:58;38.90;;;36.40;;
7231;SDS011;3657;49.630;11.018;2024-02-28T04:41:27;35.47;;;32.93;;
7231;SDS011;3657;49.630;11.018;2024-02-28T04:43:54;36.63;;;34.13;;
7231;SDS011;3657;49.630;11.018;2024-02-28T04:46:20;38.17;;;35.33;;
7231;SDS011;3657;49.630;11.018;2024-02-28T04:48:47;34.90;;;32.40;;
7231;SDS011;3657;49.630;11.018;2024-02-28T04:51:14;32.53;;;30.43;;
7231;SDS011;3657;49.630;11.018;2024-02-28T04:53:42;40.67;;;37.73;;
7231;SDS011;3657;49.630;11.018;2024-02-28T04:56:09;37.03;;;34.40;;
7231;SDS011;3657;49.630;11.018;2024-02-28T04:58:37;33.60;;;31.47;;
7231;SDS011;3657;49.630;11.018;2024-02-28T05:01:03;35.60;;;33.23;;
7231;SDS011;3657;49.630;11.018;2024-02-28T05:03:30;38.03;;;35.13;;
7231;SDS011;3657;49.630;11.018;2024-02-28T05:05:57;39.30;;;36.57;;
7231;SDS011;3657;49.630;11.018;2024-02-28T05:08:23;32.77;;;30.67;;
7231;SDS011;3657;49.630;11.018;2024-02-28T05:10:52;33.87;;;31.50;;
7231;SDS011;3657;49.630;11.018;2024-02-28T05:13:19;36.40;;;33.70;;
7231;SDS011;3657;49.630;11.018;2024-02-28T05:15:48;34.17;;;31.70;;
7231;SDS011;3657;49.630;11.018;2024-02-28T05:18:15;38.63;;;35.73;;
7231;SDS011;3657;49.630;11.018;2024-02-28T05:20:42;36.03;;;33.57;;
7231;SDS011;3657;49.630;11.018;2024-02-28T05:23:09;37.50;;;35.03;;
7231;SDS011;3657;49.630;11.018;2024-02-28T05:25:37;40.47;;;37.70;;
7231;SDS011;3657;49.630;11.018;2024-02-28T05:28:04;40.00;;;37.07;;
7231;SDS011;3657;49.630;11.018;2024-02-28T05:30:31;40.37;;;37.70;;
7231;SDS011;3657;49.630;11.018;2024-02-28T05:32:59;38.00;;;35.60;;
7231;SDS011;3657;49.630;11.018;2024-02-28T05:35:26;37.70;;;35.20;;
7231;SDS011;3657;49.630;11.018;2024-02-28T05:37:53;36.03;;;33.57;;
7231;SDS011;3657;49.630;11.018;2024-02-28T05:40:20;39.37;;;36.67;;
7231;SDS011;3657;49.630;11.018;2024-02-28T05:42:47;36.00;;;33.60;;
7231;SDS011;3657;49.630;11.018;2024-02-28T05:45:13;35.83;;;33.53;;
7231;SDS011;3657;49.630;11.018;2024-02-28T05:47:40;37.87;;;35.63;;
7231;SDS011;3657;49.630;11.018;2024-02-28T05:50:09;35.67;;;33.47;;
7231;SDS011;3657;49.630;11.018;2024-02-28T05:52:36;33.10;;;30.80;;
7231;SDS011;3657;49.630;11.018;2024-02-28T05:55:03;38.23;;;35.90;;
7231;SDS011;3657;49.630;11.018;2024-02-28T05:57:30;40.67;;;37.77;;
7231;SDS011;3657;49.630;11.018;2024-02-28T05:59:57;37.77;;;35.33;;
7231;SDS011;3657;49.630;11.018;2024-02-28T06:02:23;38.60;;;35.87;;
7231;SDS011;3657;49.630;11.018;2024-02-28T06:04:50;39.50;;;36.93;;
7231;SDS011;3657;49.630;11.018;2024-02-28T06:07:19;32.07;;;30.07;;
7231;SDS011;3657;49.630;11.018;2024-02-28T06:09:45;33.17;;;30.70;;
7231;SDS011;3657;49.630;11.018;2024-02-28T06:12:12;35.07;;;32.50;;
7231;SDS011;3657;49.630;11.018;2024-02-28T06:14:39;33.97;;;31.57;;
7231;SDS011;3657;49.630;11.018;2024-02-28T06:17:06;32.03;;;29.93;;
7231;SDS011;3657;49.630;11.018;2024-02-28T06:19:32;34.13;;;31.77;;
7231;SDS011;3657;49.630;11.018;2024-02-28T06:21:59;33.53;;;31.20;;
7231;SDS011;3657;49.630;11.018;2024-02-28T06:24:27;32.07;;;29.97;;
7231;SDS011;3657;49.630;11.018;2024-02-28T06:26:54;32.83;;;30.57;;
7231;SDS011;3657;49.630;11.018;2024-02-28T06:29:21;31.57;;;29.57;;
7231;SDS011;3657;49.630;11.018;2024-02-28T06:31:49;33.77;;;31.37;;
7231;SDS011;3657;49.630;11.018;2024-02-28T06:34:17;33.03;;;30.97;;
7231;SDS011;3657;49.630;11.018;2024-02-28T06:36:44;36.87;;;34.20;;
7231;SDS011;3657;49.630;11.018;2024-02-28T06:39:11;33.63;;;31.33;;
7231;SDS011;3657;49.630;11.018;2024-02-28T06:41:39;32.40;;;30.30;;
7231;SDS011;3657;49.630;11.018;2024-02-28T06:44:06;33.13;;;31.00;;
7231;SDS011;3657;49.630;11.018;2024-02-28T06:46:33;35.17;;;32.83;;
7231;SDS011;3657;49.630;11.018;2024-02-28T06:49:00;37.27;;;34.67;;
7231;SDS011;3657;49.630;11.018;2024-02-28T06:51:26;35.70;;;33.10;;
7231;SDS011;3657;49.630;11.018;2024-02-28T06:53:53;35.97;;;33.47;;
7231;SDS011;3657;49.630;11.018;2024-02-28T06:56:20;33.60;;;31.40;;
7231;SDS011;3657;49.630;11.018;2024-02-28T06:58:48;36.57;;;33.80;;
7231;SDS011;3657;49.630;11.018;2024-02-28T07:01:14;37.03;;;34.43;;
7231;SDS011;3657;49.630;11.018;2024-02-28T07:03:41;32.83;;;30.80;;
7231;SDS011;3657;49.630;11.018;2024-02-28T07:06:08;33.53;;;31.33;;
7231;SDS011;3657;49.630;11.018;2024-02-28T07:08:34;37.77;;;35.07;;
7231;SDS011;3657;49.630;11.018;2024-02-28T07:11:02;38.90;;;35.97;;
7231;SDS011;3657;49.630;11.018;2024-02-28T07:13:29;33.57;;;31.30;;
7231;SDS011;3657;49.630;11.018;2024-02-28T07:15:57;30.93;;;29.00;;
7231;SDS011;3657;49.630;11.018;2024-02-28T07:18:24;32.23;;;30.13;;
7231;SDS011;3657;49.630;11.018;2024-02-28T07:20:53;32.57;;;30.53;;
7231;SDS011;3657;49.630;11.018;2024-02-28T07:23:20;32.00;;;29.90;;
7231;SDS011;3657;49.630;11.018;2024-02-28T07:25:46;33.47;;;31.27;;
7231;SDS011;3657;49.630;11.018;2024-02-28T07:28:13;31.80;;;29.70;;
7231;SDS011;3657;49.630;11.018;2024-02-28T07:30:40;32.67;;;30.47;;
7231;SDS011;3657;49.630;11.018;2024-02-28T07:33:08;30.93;;;29.13;;
7231;SDS011;3657;49.630;11.018;2024-02-28T07:35:43;32.10;;;30.13;;
7231;SDS011;3657;49.630;11.018;2024-02-28T07:38:10;31.60;;;29.63;;
7231;SDS011;3657;49.630;11.018;2024-02-28T07:40:37;33.13;;;30.97;;
7231;SDS011;3657;49.630;11.018;2024-02-28T07:43:04;32.03;;;30.13;;
7231;SDS011;3657;49.630;11.018;2024-02-28T07:45:30;31.70;;;29.60;;
7231;SDS011;3657;49.630;11.018;2024-02-28T07:47:57;31.27;;;29.37;;
7231;SDS011;3657;49.630;11.018;2024-02-28T07:50:27;34.03;;;31.80;;
7231;SDS011;3657;49.630;11.018;2024-02-28T07:52:53;31.50;;;29.60;;
7231;SDS011;3657;49.630;11.018;2024-02-28T07:55:21;30.00;;;28.30;;
7231;SDS011;3657;49.630;11.018;2024-02-28T07:57:50;35.93;;;33.30;;
7231;SDS011;3657;49.630;11.018;2024-02-28T08:00:17;32.07;;;30.07;;
7231;SDS011;3657;49.630;11.018;2024-02-28T08:02:45;32.47;;;30.47;;
7231;SDS011;3657;49.630;11.018;2024-02-28T08:05:12;33.77;;;31.57;;
7231;SDS011;3657;49.630;11.018;2024-02-28T08:07:40;32.57;;;30.27;;
7231;SDS011;3657;49.630;11.018;2024-02-28T08:10:07;32.77;;;30.57;;
7231;SDS011;3657;49.630;11.018;2024-02-28T08:12:35;30.70;;;28.70;;
7231;SDS011;3657;49.630;11.018;2024-02-28T08:15:02;33.57;;;31.30;;
7231;SDS011;3657;49.630;11.018;2024-02-28T08:17:30;29.87;;;28.07;;
7231;SDS011;3657;49.630;11.018;2024-02-28T08:19:57;31.30;;;29.40;;
7231;SDS011;3657;49.630;11.018;2024-02-28T08:22:23;36.47;;;33.97;;
7231;SDS011;3657;49.630;11.018;2024-02-28T08:24:52;32.37;;;30.30;;
7231;SDS011;3657;49.630;11.018;2024-02-28T08:27:19;34.17;;;32.00;;
7231;SDS011;3657;49.630;11.018;2024-02-28T08:29:48;36.53;;;33.97;;
7231;SDS011;3657;49.630;11.018;2024-02-28T08:32:15;34.93;;;32.73;;
7231;SDS011;3657;49.630;11.018;2024-02-28T08:34:43;32.70;;;30.67;;
7231;SDS011;3657;49.630;11.018;2024-02-28T08:37:10;30.80;;;29.00;;
7231;SDS011;3657;49.630;11.018;2024-02-28T08:39:37;30.83;;;28.93;;
7231;SDS011;3657;49.630;11.018;2024-02-28T08:42:05;32.03;;;30.03;;
7231;SDS011;3657;49.630;11.018;2024-02-28T08:44:32;34.17;;;31.97;;
7231;SDS011;3657;49.630;11.018;2024-02-28T08:46:58;31.93;;;30.03;;
7231;SDS011;3657;49.630;11.018;2024-02-28T08:49:25;33.33;;;31.23;;
7231;SDS011;3657;49.630;11.018;2024-02-28T08:51:52;31.60;;;29.80;;
7231;SDS011;3657;49.630;11.018;2024-02-28T08:54:18;32.43;;;30.60;;
7231;SDS011;3657;49.630;11.018;2024-02-28T08:56:45;34.43;;;32.17;;
7231;SDS011;3657;49.630;11.018;2024-02-28T08:59:13;34.97;;;32.57;;
7231;SDS011;3657;49.630;11.018;2024-02-28T09:01:40;31.73;;;29.73;;
7231;SDS011;3657;49.630;11.018;2024-02-28T09:04:07;33.33;;;31.23;;
7231;SDS011;3657;49.630;11.018;2024-02-28T09:06:33;30.17;;;28.27;;
7231;SDS011;3657;49.630;11.018;2024-02-28T09:09:00;31.30;;;29.50;;
7231;SDS011;3657;49.630;11.018;2024-02-28T09:11:27;31.40;;;29.53;;
7231;SDS011;3657;49.630;11.018;2024-02-28T09:13:53;33.67;;;31.67;;
7231;SDS011;3657;49.630;11.018;2024-02-28T09:16:21;32.13;;;30.13;;
7231;SDS011;3657;49.630;11.018;2024-02-28T09:18:48;31.23;;;29.23;;
7231;SDS011;3657;49.630;11.018;2024-02-28T09:21:15;29.93;;;28.17;;
7231;SDS011;3657;49.630;11.018;2024-02-28T09:23:41;33.17;;;31.03;;
7231;SDS011;3657;49.630;11.018;2024-02-28T09:26:08;31.93;;;30.03;;
7231;SDS011;3657;49.630;11.018;2024-02-28T09:28:35;32.20;;;30.27;;
7231;SDS011;3657;49.630;11.018;2024-02-28T09:31:02;32.40;;;30.33;;
7231;SDS011;3657;49.630;11.018;2024-02-28T09:33:31;33.27;;;31.07;;
7231;SDS011;3657;49.630;11.018;2024-02-28T09:35:57;33.57;;;31.33;;
7231;SDS011;3657;49.630;11.018;2024-02-28T09:38:24;31.63;;;29.73;;
7231;SDS011;3657;49.630;11.018;2024-02-28T09:40:51;32.70;;;30.50;;
7231;SDS011;3657;49.630;11.018;2024-02-28T09:43:19;33.10;;;30.87;;
7231;SDS011;3657;49.630;11.018;2024-02-28T09:45:52;31.33;;;29.37;;
7231;SDS011;3657;49.630;11.018;2024-02-28T09:48:19;33.47;;;31.10;;
7231;SDS011;3657;49.630;11.018;2024-02-28T09:50:48;32.50;;;30.33;;
7231;SDS011;3657;49.630;11.018;2024-02-28T09:53:15;32.97;;;30.60;;
7231;SDS011;3657;49.630;11.018;2024-02-28T09:55:41;32.07;;;30.03;;
7231;SDS011;3657;49.630;11.018;2024-02-28T09:58:08;32.03;;;30.03;;
7231;SDS011;3657;49.630;11.018;2024-02-28T10:00:36;32.70;;;30.73;;
7231;SDS011;3657;49.630;11.018;2024-02-28T10:03:04;31.93;;;30.13;;
7231;SDS011;3657;49.630;11.018;2024-02-28T10:05:32;33.67;;;31.73;;
7231;SDS011;3657;49.630;11.018;2024-02-28T10:08:01;31.30;;;29.23;;
7231;SDS011;3657;49.630;11.018;2024-02-28T10:10:28;34.30;;;32.20;;
7231;SDS011;3657;49.630;11.018;2024-02-28T10:12:54;34.90;;;32.63;;
7231;SDS011;3657;49.630;11.018;2024-02-28T10:15:23;30.73;;;28.93;;
7231;SDS011;3657;49.630;11.018;2024-02-28T10:17:52;33.13;;;31.07;;
7231;SDS011;3657;49.630;11.018;2024-02-28T10:20:19;30.10;;;28.20;;
7231;SDS011;3657;49.630;11.018;2024-02-28T10:22:45;32.40;;;30.40;;
7231;SDS011;3657;49.630;11.018;2024-02-28T10:25:13;30.70;;;28.80;;
7231;SDS011;3657;49.630;11.018;2024-02-28T10:27:40;30.93;;;29.00;;
7231;SDS011;3657;49.630;11.018;2024-02-28T10:30:07;32.77;;;30.70;;
7231;SDS011;3657;49.630;11.018;2024-02-28T10:32:35;34.03;;;31.63;;
7231;SDS011;3657;49.630;11.018;2024-02-28T10:35:04;32.53;;;30.53;;
7231;SDS011;3657;49.630;11.018;2024-02-28T10:37:33;32.87;;;30.77;;
7231;SDS011;3657;49.630;11.018;2024-02-28T10:40:00;33.17;;;31.07;;
7231;SDS011;3657;49.630;11.018;2024-02-28T10:42:29;36.67;;;33.73;;
7231;SDS011;3657;49.630;11.018;2024-02-28T10:44:57;36.43;;;33.83;;
7231;SDS011;3657;49.630;11.018;2024-02-28T10:47:24;34.70;;;32.47;;
7231;SDS011;3657;49.630;11.018;2024-02-28T10:49:53;32.80;;;30.70;;
7231;SDS011;3657;49.630;11.018;2024-02-28T10:52:20;33.37;;;31.37;;
7231;SDS011;3657;49.630;11.018;2024-02-28T10:54:48;34.53;;;32.43;;
7231;SDS011;3657;49.630;11.018;2024-02-28T10:57:20;33.90;;;32.00;;
7231;SDS011;3657;49.630;11.018;2024-02-28T10:59:51;33.47;;;31.50;;
7231;SDS011;3657;49.630;11.018;2024-02-28T11:02:18;36.07;;;33.43;;
7231;SDS011;3657;49.630;11.018;2024-02-28T11:04:45;36.97;;;34.53;;
7231;SDS011;3657;49.630;11.018;2024-02-28T11:07:18;35.00;;;32.80;;
7231;SDS011;3657;49.630;11.018;2024-02-28T11:09:45;34.93;;;32.73;;
7231;SDS011;3657;49.630;11.018;2024-02-28T11:12:23;36.53;;;34.03;;
7231;SDS011;3657;49.630;11.018;2024-02-28T11:14:56;35.93;;;33.73;;
7231;SDS011;3657;49.630;11.018;2024-02-28T11:17:25;34.40;;;32.10;;
7231;SDS011;3657;49.630;11.018;2024-02-28T11:19:53;35.10;;;32.90;;
7231;SDS011;3657;49.630;11.018;2024-02-28T11:22:20;34.07;;;31.93;;
7231;SDS011;3657;49.630;11.018;2024-02-28T11:24:47;34.50;;;32.40;;
7231;SDS011;3657;49.630;11.018;2024-02-28T11:27:14;34.60;;;32.40;;
7231;SDS011;3657;49.630;11.018;2024-02-28T11:29:41;30.80;;;29.00;;
7231;SDS011;3657;49.630;11.018;2024-02-28T11:32:12;33.50;;;31.30;;
7231;SDS011;3657;49.630;11.018;2024-02-28T11:34:39;33.60;;;31.53;;
7231;SDS011;3657;49.630;11.018;2024-02-28T11:37:06;33.10;;;31.07;;
7231;SDS011;3657;49.630;11.018;2024-02-28T11:39:35;32.63;;;30.63;;
7231;SDS011;3657;49.630;11.018;2024-02-28T11:42:09;33.37;;;31.33;;
7231;SDS011;3657;49.630;11.018;2024-02-28T11:44:35;32.57;;;30.57;;
7231;SDS011;3657;49.630;11.018;2024-02-28T11:47:02;33.97;;;31.87;;
7231;SDS011;3657;49.630;11.018;2024-02-28T11:49:32;33.57;;;31.47;;
7231;SDS011;3657;49.630;11.018;2024-02-28T11:51:58;33.20;;;31.20;;
7231;SDS011;3657;49.630;11.018;2024-02-28T11:54:25;33.03;;;30.90;;
7231;SDS011;3657;49.630;11.018;2024-02-28T11:56:52;33.80;;;31.50;;
7231;SDS011;3657;49.630;11.018;2024-02-28T11:59:18;34.70;;;32.37;;
7231;SDS011;3657;49.630;11.018;2024-02-28T12:01:45;29.77;;;27.97;;
7231;SDS011;3657;49.630;11.018;2024-02-28T12:04:12;33.93;;;31.83;;
7231;SDS011;3657;49.630;11.018;2024-02-28T12:06:41;28.43;;;26.57;;
7231;SDS011;3657;49.630;11.018;2024-02-28T12:09:08;32.43;;;30.43;;
7231;SDS011;3657;49.630;11.018;2024-02-28T12:11:39;31.30;;;29.50;;
7231;SDS011;3657;49.630;11.018;2024-02-28T12:14:06;33.60;;;31.43;;
7231;SDS011;3657;49.630;11.018;2024-02-28T12:16:35;33.10;;;31.07;;
7231;SDS011;3657;49.630;11.018;2024-02-28T12:19:02;31.87;;;29.97;;
7231;SDS011;3657;49.630;11.018;2024-02-28T12:21:29;32.70;;;30.57;;
7231;SDS011;3657;49.630;11.018;2024-02-28T12:23:57;33.60;;;31.70;;
7231;SDS011;3657;49.630;11.018;2024-02-28T12:26:24;32.10;;;30.17;;
7231;SDS011;3657;49.630;11.018;2024-02-28T12:28:51;30.40;;;28.47;;
7231;SDS011;3657;49.630;11.018;2024-02-28T12:31:17;32.40;;;30.50;;
7231;SDS011;3657;49.630;11.018;2024-02-28T12:33:46;32.23;;;30.23;;
7231;SDS011;3657;49.630;11.018;2024-02-28T12:36:13;30.67;;;28.93;;
7231;SDS011;3657;49.630;11.018;2024-02-28T12:38:40;33.10;;;31.10;;
7231;SDS011;3657;49.630;11.018;2024-02-28T12:41:08;33.27;;;31.17;;
7231;SDS011;3657;49.630;11.018;2024-02-28T12:43:35;30.70;;;28.97;;
7231;SDS011;3657;49.630;11.018;2024-02-28T12:46:02;32.07;;;30.07;;
7231;SDS011;3657;49.630;11.018;2024-02-28T12:48:29;31.67;;;29.57;;
7231;SDS011;3657;49.630;11.018;2024-02-28T12:50:56;31.97;;;30.10;;
7231;SDS011;3657;49.630;11.018;2024-02-28T12:53:23;32.13;;;30.13;;
7231;SDS011;3657;49.630;11.018;2024-02-28T12:55:49;33.93;;;31.77;;
7231;SDS011;3657;49.630;11.018;2024-02-28T12:58:17;36.13;;;33.83;;
7231;SDS011;3657;49.630;11.018;2024-02-28T13:00:44;35.70;;;33.27;;
7231;SDS011;3657;49.630;11.018;2024-02-28T13:03:11;35.40;;;33.00;;
7231;SDS011;3657;49.630;11.018;2024-02-28T13:05:37;34.87;;;32.60;;
7231;SDS011;3657;49.630;11.018;2024-02-28T13:08:04;36.17;;;34.17;;
7231;SDS011;3657;49.630;11.018;2024-02-28T13:10:31;33.90;;;31.83;;
7231;SDS011;3657;49.630;11.018;2024-02-28T13:13:01;33.90;;;31.80;;
7231;SDS011;3657;49.630;11.018;2024-02-28T13:15:29;31.43;;;29.50;;
7231;SDS011;3657;49.630;11.018;2024-02-28T13:17:56;31.57;;;29.73;;
7231;SDS011;3657;49.630;11.018;2024-02-28T13:20:22;34.43;;;32.33;;
7231;SDS011;3657;49.630;11.018;2024-02-28T13:22:49;34.30;;;32.10;;
7231;SDS011;3657;49.630;11.018;2024-02-28T13:25:16;33.43;;;31.33;;
7231;SDS011;3657;49.630;11.018;2024-02-28T13:27:44;31.77;;;29.87;;
7231;SDS011;3657;49.630;11.018;2024-02-28T13:30:11;31.50;;;29.70;;
7231;SDS011;3657;49.630;11.018;2024-02-28T13:32:41;31.50;;;29.60;;
7231;SDS011;3657;49.630;11.018;2024-02-28T13:35:07;33.37;;;30.83;;
7231;SDS011;3657;49.630;11.018;2024-02-28T13:37:35;27.87;;;26.07;;
7231;SDS011;3657;49.630;11.018;2024-02-28T13:40:05;29.93;;;28.33;;
7231;SDS011;3657;49.630;11.018;2024-02-28T13:42:35;31.90;;;29.87;;
7231;SDS011;3657;49.630;11.018;2024-02-28T13:45:02;31.77;;;29.97;;
7231;SDS011;3657;49.630;11.018;2024-02-28T13:47:32;33.07;;;31.07;;
7231;SDS011;3657;49.630;11.018;2024-02-28T13:50:00;31.03;;;29.33;;
7231;SDS011;3657;49.630;11.018;2024-02-28T13:52:27;30.47;;;28.70;;
7231;SDS011;3657;49.630;11.018;2024-02-28T13:54:54;32.70;;;30.77;;
7231;SDS011;3657;49.630;11.018;2024-02-28T13:57:20;31.50;;;29.80;;
7231;SDS011;3657;49.630;11.018;2024-02-28T13:59:47;27.73;;;26.33;;
7231;SDS011;3657;49.630;11.018;2024-02-28T14:02:16;31.17;;;29.33;;
7231;SDS011;3657;49.630;11.018;2024-02-28T14:04:42;32.07;;;30.07;;
7231;SDS011;3657;49.630;11.018;2024-02-28T14:07:15;31.50;;;29.77;;
7231;SDS011;3657;49.630;11.018;2024-02-28T14:09:42;30.27;;;28.47;;
7231;SDS011;3657;49.630;11.018;2024-02-28T14:12:09;27.83;;;26.33;;
7231;SDS011;3657;49.630;11.018;2024-02-28T14:14:36;28.63;;;27.13;;
7231;SDS011;3657;49.630;11.018;2024-02-28T14:17:04;28.90;;;27.33;;
7231;SDS011;3657;49.630;11.018;2024-02-28T14:19:31;32.17;;;30.37;;
7231;SDS011;3657;49.630;11.018;2024-02-28T14:21:59;30.60;;;28.70;;
7231;SDS011;3657;49.630;11.018;2024-02-28T14:24:27;28.33;;;26.80;;
7231;SDS011;3657;49.630;11.018;2024-02-28T14:26:53;27.87;;;26.47;;
7231;SDS011;3657;49.630;11.018;2024-02-28T14:29:20;28.67;;;27.00;;
7231;SDS011;3657;49.630;11.018;2024-02-28T14:31:47;28.30;;;26.80;;
7231;SDS011;3657;49.630;11.018;2024-02-28T14:34:13;27.70;;;26.30;;